sensor_id;sensor_type;location;lat;lon;timestamp;pressure;altitude;pressure_sealevel;temperature;humidity
74794;BME280;63320;50.768;6.724;2022-12-18T00:01:57;101417.25;;;-4.93;70.30
74794;BME280;63320;50.768;6.724;2022-12-18T00:04:24;101412.31;;;-5.12;70.66
74794;BME280;63320;50.768;6.724;2022-12-18T00:06:50;101411.97;;;-4.98;71.04
74794;BME280;63320;50.768;6.724;2022-12-18T00:09:17;101418.00;;;-4.72;70.07
74794;BME280;63320;50.768;6.724;2022-12-18T00:11:42;101412.44;;;-4.58;69.19
74794;BME280;63320;50.768;6.724;2022-12-18T00:14:09;101410.38;;;-4.69;69.54
74794;BME280;63320;50.768;6.724;2022-12-18T00:16:36;101404.50;;;-4.91;69.39
74794;BME280;63320;50.768;6.724;2022-12-18T00:19:01;101413.59;;;-5.01;69.62
74794;BME280;63320;50.768;6.724;2022-12-18T00:21:27;101414.59;;;-4.71;69.38
74794;BME280;63320;50.768;6.724;2022-12-18T00:23:53;101418.94;;;-4.68;69.30
74794;BME280;63320;50.768;6.724;2022-12-18T00:26:22;101416.91;;;-4.78;69.45
74794;BME280;63320;50.768;6.724;2022-12-18T00:28:48;101426.09;;;-4.59;68.69
74794;BME280;63320;50.768;6.724;2022-12-18T00:31:16;101427.31;;;-4.99;69.22
74794;BME280;63320;50.768;6.724;2022-12-18T00:33:42;101430.72;;;-5.00;69.74
74794;BME280;63320;50.768;6.724;2022-12-18T00:36:10;101423.38;;;-4.89;69.62
74794;BME280;63320;50.768;6.724;2022-12-18T00:38:36;101423.06;;;-4.99;69.71
74794;BME280;63320;50.768;6.724;2022-12-18T00:41:02;101429.81;;;-4.77;68.69
74794;BME280;63320;50.768;6.724;2022-12-18T00:43:29;101423.88;;;-5.00;70.05
74794;BME280;63320;50.768;6.724;2022-12-18T00:45:54;101435.22;;;-4.93;69.47
74794;BME280;63320;50.768;6.724;2022-12-18T00:48:20;101441.97;;;-4.97;70.13
74794;BME280;63320;50.768;6.724;2022-12-18T00:50:47;101436.66;;;-5.01;70.69
74794;BME280;63320;50.768;6.724;2022-12-18T00:53:12;101433.28;;;-4.75;69.27
74794;BME280;63320;50.768;6.724;2022-12-18T00:55:39;101425.19;;;-4.87;69.54
74794;BME280;63320;50.768;6.724;2022-12-18T00:58:04;101422.09;;;-4.77;69.94
74794;BME280;63320;50.768;6.724;2022-12-18T01:00:31;101413.94;;;-4.90;69.82
74794;BME280;63320;50.768;6.724;2022-12-18T01:02:56;101425.75;;;-4.70;69.95
74794;BME280;63320;50.768;6.724;2022-12-18T01:05:22;101412.91;;;-4.70;70.21
74794;BME280;63320;50.768;6.724;2022-12-18T01:07:47;101422.16;;;-4.75;69.32
74794;BME280;63320;50.768;6.724;2022-12-18T01:10:13;101428.31;;;-4.70;69.41
74794;BME280;63320;50.768;6.724;2022-12-18T01:12:38;101421.34;;;-4.47;68.72
74794;BME280;63320;50.768;6.724;2022-12-18T01:15:05;101423.47;;;-4.61;69.13
74794;BME280;63320;50.768;6.724;2022-12-18T01:17:32;101425.78;;;-4.69;69.24
74794;BME280;63320;50.768;6.724;2022-12-18T01:19:58;101416.16;;;-4.76;69.79
74794;BME280;63320;50.768;6.724;2022-12-18T01:22:23;101421.50;;;-4.68;70.23
74794;BME280;63320;50.768;6.724;2022-12-18T01:24:49;101426.50;;;-4.73;68.74
74794;BME280;63320;50.768;6.724;2022-12-18T01:27:14;101421.50;;;-4.68;70.15
74794;BME280;63320;50.768;6.724;2022-12-18T01:29:39;101413.16;;;-4.62;69.71
74794;BME280;63320;50.768;6.724;2022-12-18T01:32:05;101418.09;;;-4.94;70.30
74794;BME280;63320;50.768;6.724;2022-12-18T01:34:31;101412.94;;;-4.69;70.00
74794;BME280;63320;50.768;6.724;2022-12-18T01:36:57;101417.19;;;-4.44;69.33
74794;BME280;63320;50.768;6.724;2022-12-18T01:39:22;101418.19;;;-4.38;69.13
74794;BME280;63320;50.768;6.724;2022-12-18T01:41:48;101416.34;;;-4.43;69.54
74794;BME280;63320;50.768;6.724;2022-12-18T01:47:15;101422.28;;;-4.45;69.05
74794;BME280;63320;50.768;6.724;2022-12-18T01:49:42;101409.63;;;-4.66;69.91
74794;BME280;63320;50.768;6.724;2022-12-18T01:52:07;101417.47;;;-4.61;69.64
74794;BME280;63320;50.768;6.724;2022-12-18T01:54:33;101412.09;;;-4.95;71.11
74794;BME280;63320;50.768;6.724;2022-12-18T01:56:58;101407.75;;;-4.72;69.82
74794;BME280;63320;50.768;6.724;2022-12-18T01:59:24;101409.28;;;-4.77;70.54
74794;BME280;63320;50.768;6.724;2022-12-18T02:01:49;101414.53;;;-4.72;70.03
74794;BME280;63320;50.768;6.724;2022-12-18T02:04:20;101404.59;;;-4.88;69.95
74794;BME280;63320;50.768;6.724;2022-12-18T02:06:49;101406.59;;;-4.80;70.14
74794;BME280;63320;50.768;6.724;2022-12-18T02:09:20;101400.13;;;-4.94;70.05
74794;BME280;63320;50.768;6.724;2022-12-18T02:11:53;101399.06;;;-5.01;70.25
74794;BME280;63320;50.768;6.724;2022-12-18T02:14:28;101404.16;;;-4.77;69.92
74794;BME280;63320;50.768;6.724;2022-12-18T02:17:01;101410.59;;;-4.88;70.22
74794;BME280;63320;50.768;6.724;2022-12-18T02:19:46;101405.38;;;-5.16;71.15
74794;BME280;63320;50.768;6.724;2022-12-18T02:22:24;101406.81;;;-5.23;71.22
74794;BME280;63320;50.768;6.724;2022-12-18T02:25:00;101413.75;;;-4.97;70.57
74794;BME280;63320;50.768;6.724;2022-12-18T02:27:30;101396.56;;;-5.23;71.23
74794;BME280;63320;50.768;6.724;2022-12-18T02:29:59;101396.22;;;-5.08;70.92
74794;BME280;63320;50.768;6.724;2022-12-18T02:32:28;101399.63;;;-5.09;70.81
74794;BME280;63320;50.768;6.724;2022-12-18T02:34:56;101401.69;;;-5.23;70.88
74794;BME280;63320;50.768;6.724;2022-12-18T02:37:24;101398.38;;;-5.21;70.68
74794;BME280;63320;50.768;6.724;2022-12-18T02:39:53;101401.44;;;-5.31;70.27
74794;BME280;63320;50.768;6.724;2022-12-18T02:42:21;101399.09;;;-5.25;71.17
74794;BME280;63320;50.768;6.724;2022-12-18T02:44:50;101397.16;;;-5.06;70.98
74794;BME280;63320;50.768;6.724;2022-12-18T02:47:18;101398.34;;;-5.22;70.10
74794;BME280;63320;50.768;6.724;2022-12-18T02:49:53;101393.59;;;-4.86;68.86
74794;BME280;63320;50.768;6.724;2022-12-18T02:52:29;101390.38;;;-5.30;70.84
74794;BME280;63320;50.768;6.724;2022-12-18T02:55:01;101394.28;;;-4.90;70.46
74794;BME280;63320;50.768;6.724;2022-12-18T02:57:34;101390.06;;;-5.13;69.70
74794;BME280;63320;50.768;6.724;2022-12-18T03:00:06;101387.03;;;-5.27;70.92
74794;BME280;63320;50.768;6.724;2022-12-18T03:02:39;101391.31;;;-5.02;70.78
74794;BME280;63320;50.768;6.724;2022-12-18T03:05:11;101400.34;;;-4.88;70.29
74794;BME280;63320;50.768;6.724;2022-12-18T03:07:41;101395.28;;;-4.86;69.73
74794;BME280;63320;50.768;6.724;2022-12-18T03:10:10;101397.91;;;-5.34;71.25
74794;BME280;63320;50.768;6.724;2022-12-18T03:12:40;101400.66;;;-4.79;69.27
74794;BME280;63320;50.768;6.724;2022-12-18T03:15:11;101396.84;;;-4.90;70.31
74794;BME280;63320;50.768;6.724;2022-12-18T03:17:40;101392.28;;;-4.99;71.16
74794;BME280;63320;50.768;6.724;2022-12-18T03:20:12;101386.09;;;-4.80;69.75
74794;BME280;63320;50.768;6.724;2022-12-18T03:22:40;101373.13;;;-4.83;70.40
74794;BME280;63320;50.768;6.724;2022-12-18T03:25:09;101370.28;;;-4.92;71.09
74794;BME280;63320;50.768;6.724;2022-12-18T03:27:37;101373.25;;;-4.53;70.49
74794;BME280;63320;50.768;6.724;2022-12-18T03:30:06;101364.16;;;-4.70;69.73
74794;BME280;63320;50.768;6.724;2022-12-18T03:32:39;101372.84;;;-4.66;69.87
74794;BME280;63320;50.768;6.724;2022-12-18T03:35:08;101367.84;;;-4.87;69.62
74794;BME280;63320;50.768;6.724;2022-12-18T03:37:35;101362.94;;;-4.81;70.35
74794;BME280;63320;50.768;6.724;2022-12-18T03:40:01;101365.09;;;-4.93;70.10
74794;BME280;63320;50.768;6.724;2022-12-18T03:42:30;101363.72;;;-4.84;69.52
74794;BME280;63320;50.768;6.724;2022-12-18T03:45:02;101361.94;;;-4.59;69.72
74794;BME280;63320;50.768;6.724;2022-12-18T03:47:32;101358.38;;;-4.63;69.70
74794;BME280;63320;50.768;6.724;2022-12-18T03:50:06;101352.50;;;-4.60;69.27
74794;BME280;63320;50.768;6.724;2022-12-18T03:52:37;101357.06;;;-4.52;68.61
74794;BME280;63320;50.768;6.724;2022-12-18T03:55:05;101357.28;;;-4.44;68.64
74794;BME280;63320;50.768;6.724;2022-12-18T03:57:32;101352.47;;;-4.87;70.18
74794;BME280;63320;50.768;6.724;2022-12-18T04:00:02;101349.44;;;-4.76;69.30
74794;BME280;63320;50.768;6.724;2022-12-18T04:02:29;101337.53;;;-4.47;68.64
74794;BME280;63320;50.768;6.724;2022-12-18T04:05:00;101333.88;;;-4.53;69.23
74794;BME280;63320;50.768;6.724;2022-12-18T04:07:28;101344.44;;;-4.44;68.84
74794;BME280;63320;50.768;6.724;2022-12-18T04:09:56;101348.66;;;-4.73;68.68
74794;BME280;63320;50.768;6.724;2022-12-18T04:12:24;101346.91;;;-4.74;69.29
74794;BME280;63320;50.768;6.724;2022-12-18T04:14:49;101337.50;;;-4.75;69.43
74794;BME280;63320;50.768;6.724;2022-12-18T04:17:14;101338.28;;;-4.49;69.18
74794;BME280;63320;50.768;6.724;2022-12-18T04:19:40;101334.59;;;-4.57;68.96
74794;BME280;63320;50.768;6.724;2022-12-18T04:22:09;101338.41;;;-4.46;68.97
74794;BME280;63320;50.768;6.724;2022-12-18T04:24:35;101336.31;;;-4.58;68.48
74794;BME280;63320;50.768;6.724;2022-12-18T04:27:00;101337.66;;;-4.69;69.23
74794;BME280;63320;50.768;6.724;2022-12-18T04:29:25;101330.16;;;-4.90;68.51
74794;BME280;63320;50.768;6.724;2022-12-18T04:31:51;101328.50;;;-4.88;69.32
74794;BME280;63320;50.768;6.724;2022-12-18T04:34:16;101321.16;;;-4.77;69.48
74794;BME280;63320;50.768;6.724;2022-12-18T04:36:41;101324.16;;;-4.63;68.94
74794;BME280;63320;50.768;6.724;2022-12-18T04:39:08;101331.00;;;-4.64;68.98
74794;BME280;63320;50.768;6.724;2022-12-18T04:41:33;101325.03;;;-4.63;69.19
74794;BME280;63320;50.768;6.724;2022-12-18T04:43:59;101328.72;;;-4.82;69.82
74794;BME280;63320;50.768;6.724;2022-12-18T04:46:24;101318.16;;;-4.64;68.89
74794;BME280;63320;50.768;6.724;2022-12-18T04:48:49;101321.31;;;-4.46;68.51
74794;BME280;63320;50.768;6.724;2022-12-18T04:51:15;101305.25;;;-4.38;68.63
74794;BME280;63320;50.768;6.724;2022-12-18T04:53:40;101304.03;;;-4.51;69.59
74794;BME280;63320;50.768;6.724;2022-12-18T04:56:09;101304.66;;;-4.58;68.81
74794;BME280;63320;50.768;6.724;2022-12-18T04:58:35;101295.72;;;-4.43;68.97
74794;BME280;63320;50.768;6.724;2022-12-18T05:01:01;101297.41;;;-4.43;69.27
74794;BME280;63320;50.768;6.724;2022-12-18T05:03:26;101302.66;;;-4.40;68.70
74794;BME280;63320;50.768;6.724;2022-12-18T05:05:52;101298.91;;;-4.51;70.22
74794;BME280;63320;50.768;6.724;2022-12-18T05:08:17;101297.13;;;-4.52;70.10
74794;BME280;63320;50.768;6.724;2022-12-18T05:10:43;101293.22;;;-4.41;69.26
74794;BME280;63320;50.768;6.724;2022-12-18T05:13:10;101292.53;;;-4.62;70.23
74794;BME280;63320;50.768;6.724;2022-12-18T05:15:35;101283.19;;;-4.32;69.98
74794;BME280;63320;50.768;6.724;2022-12-18T05:18:01;101288.56;;;-4.24;68.92
74794;BME280;63320;50.768;6.724;2022-12-18T05:20:27;101290.50;;;-4.46;69.92
74794;BME280;63320;50.768;6.724;2022-12-18T05:22:53;101291.44;;;-4.42;69.48
74794;BME280;63320;50.768;6.724;2022-12-18T05:25:19;101302.63;;;-4.41;70.04
74794;BME280;63320;50.768;6.724;2022-12-18T05:27:45;101315.16;;;-4.51;70.05
74794;BME280;63320;50.768;6.724;2022-12-18T05:30:12;101320.63;;;-4.40;69.73
74794;BME280;63320;50.768;6.724;2022-12-18T05:32:39;101317.19;;;-4.40;70.16
74794;BME280;63320;50.768;6.724;2022-12-18T05:35:09;101325.66;;;-4.43;69.48
74794;BME280;63320;50.768;6.724;2022-12-18T05:37:34;101335.44;;;-4.58;71.27
74794;BME280;63320;50.768;6.724;2022-12-18T05:40:00;101336.44;;;-4.53;70.14
74794;BME280;63320;50.768;6.724;2022-12-18T05:42:26;101328.59;;;-4.58;70.73
74794;BME280;63320;50.768;6.724;2022-12-18T05:44:51;101331.06;;;-4.34;70.10
74794;BME280;63320;50.768;6.724;2022-12-18T05:47:18;101341.53;;;-4.55;70.72
74794;BME280;63320;50.768;6.724;2022-12-18T05:49:43;101345.50;;;-4.37;70.50
74794;BME280;63320;50.768;6.724;2022-12-18T05:52:09;101356.22;;;-4.51;69.72
74794;BME280;63320;50.768;6.724;2022-12-18T05:54:34;101363.03;;;-4.24;69.81
74794;BME280;63320;50.768;6.724;2022-12-18T05:56:59;101378.38;;;-4.53;70.65
74794;BME280;63320;50.768;6.724;2022-12-18T05:59:25;101374.91;;;-4.55;71.12
74794;BME280;63320;50.768;6.724;2022-12-18T06:01:50;101374.91;;;-4.55;70.49
74794;BME280;63320;50.768;6.724;2022-12-18T06:04:17;101372.75;;;-4.95;71.25
74794;BME280;63320;50.768;6.724;2022-12-18T06:06:42;101367.19;;;-5.07;72.37
74794;BME280;63320;50.768;6.724;2022-12-18T06:09:07;101373.63;;;-4.95;71.06
74794;BME280;63320;50.768;6.724;2022-12-18T06:11:34;101367.25;;;-4.80;71.68
74794;BME280;63320;50.768;6.724;2022-12-18T06:13:59;101374.38;;;-4.97;70.93
74794;BME280;63320;50.768;6.724;2022-12-18T06:16:25;101376.00;;;-5.01;72.10
74794;BME280;63320;50.768;6.724;2022-12-18T06:18:50;101383.09;;;-5.17;72.34
74794;BME280;63320;50.768;6.724;2022-12-18T06:21:17;101388.34;;;-5.14;72.21
74794;BME280;63320;50.768;6.724;2022-12-18T06:23:42;101381.81;;;-5.05;72.45
74794;BME280;63320;50.768;6.724;2022-12-18T06:26:10;101387.28;;;-4.96;71.45
74794;BME280;63320;50.768;6.724;2022-12-18T06:28:35;101387.06;;;-5.02;71.84
74794;BME280;63320;50.768;6.724;2022-12-18T06:31:02;101382.22;;;-4.92;71.81
74794;BME280;63320;50.768;6.724;2022-12-18T06:33:28;101376.50;;;-4.85;71.15
74794;BME280;63320;50.768;6.724;2022-12-18T06:35:53;101375.53;;;-4.62;70.75
74794;BME280;63320;50.768;6.724;2022-12-18T06:38:20;101375.78;;;-4.54;71.00
74794;BME280;63320;50.768;6.724;2022-12-18T06:40:45;101368.44;;;-4.42;69.64
74794;BME280;63320;50.768;6.724;2022-12-18T06:43:11;101373.19;;;-4.56;70.49
74794;BME280;63320;50.768;6.724;2022-12-18T06:45:36;101364.16;;;-4.43;69.53
74794;BME280;63320;50.768;6.724;2022-12-18T06:48:01;101365.31;;;-4.60;70.54
74794;BME280;63320;50.768;6.724;2022-12-18T06:50:27;101357.09;;;-4.50;70.24
74794;BME280;63320;50.768;6.724;2022-12-18T06:52:52;101365.31;;;-4.60;71.20
74794;BME280;63320;50.768;6.724;2022-12-18T06:55:19;101351.78;;;-4.56;70.80
74794;BME280;63320;50.768;6.724;2022-12-18T06:57:44;101352.00;;;-4.22;69.69
74794;BME280;63320;50.768;6.724;2022-12-18T07:00:10;101343.22;;;-4.28;70.00
74794;BME280;63320;50.768;6.724;2022-12-18T07:02:36;101345.88;;;-4.52;70.20
74794;BME280;63320;50.768;6.724;2022-12-18T07:05:01;101352.72;;;-4.53;70.66
74794;BME280;63320;50.768;6.724;2022-12-18T07:07:27;101358.34;;;-4.64;70.41
74794;BME280;63320;50.768;6.724;2022-12-18T07:09:52;101354.19;;;-4.61;70.34
74794;BME280;63320;50.768;6.724;2022-12-18T07:12:19;101355.13;;;-4.57;70.79
74794;BME280;63320;50.768;6.724;2022-12-18T07:14:44;101355.34;;;-4.51;70.78
74794;BME280;63320;50.768;6.724;2022-12-18T07:17:09;101351.16;;;-4.76;71.07
74794;BME280;63320;50.768;6.724;2022-12-18T07:19:35;101349.25;;;-4.82;71.06
74794;BME280;63320;50.768;6.724;2022-12-18T07:22:00;101343.13;;;-4.58;71.22
74794;BME280;63320;50.768;6.724;2022-12-18T07:24:26;101339.88;;;-4.53;70.85
74794;BME280;63320;50.768;6.724;2022-12-18T07:26:51;101347.25;;;-4.63;70.60
74794;BME280;63320;50.768;6.724;2022-12-18T07:29:18;101346.91;;;-4.74;71.25
74794;BME280;63320;50.768;6.724;2022-12-18T07:31:43;101345.03;;;-4.80;71.45
74794;BME280;63320;50.768;6.724;2022-12-18T07:34:10;101344.69;;;-4.63;71.91
74794;BME280;63320;50.768;6.724;2022-12-18T07:36:35;101344.88;;;-4.57;70.42
74794;BME280;63320;50.768;6.724;2022-12-18T07:39:00;101349.38;;;-4.77;71.48
74794;BME280;63320;50.768;6.724;2022-12-18T07:41:26;101346.81;;;-4.50;71.00
74794;BME280;63320;50.768;6.724;2022-12-18T07:43:51;101355.34;;;-4.51;71.47
74794;BME280;63320;50.768;6.724;2022-12-18T07:46:18;101357.56;;;-4.35;70.33
74794;BME280;63320;50.768;6.724;2022-12-18T07:48:44;101357.28;;;-4.44;70.67
74794;BME280;63320;50.768;6.724;2022-12-18T07:51:09;101346.56;;;-4.31;70.87
74794;BME280;63320;50.768;6.724;2022-12-18T07:53:36;101350.31;;;-4.20;70.22
74794;BME280;63320;50.768;6.724;2022-12-18T07:56:04;101330.88;;;-4.11;69.99
74794;BME280;63320;50.768;6.724;2022-12-18T07:58:29;101337.78;;;-4.09;70.48
74794;BME280;63320;50.768;6.724;2022-12-18T08:01:02;101322.38;;;-4.09;70.21
74794;BME280;63320;50.768;6.724;2022-12-18T08:03:29;101318.41;;;-3.98;70.13
74794;BME280;63320;50.768;6.724;2022-12-18T08:05:58;101316.53;;;-4.03;70.41
74794;BME280;63320;50.768;6.724;2022-12-18T08:08:23;101307.41;;;-3.94;69.83
74794;BME280;63320;50.768;6.724;2022-12-18T08:10:49;101298.09;;;-3.90;70.45
74794;BME280;63320;50.768;6.724;2022-12-18T08:13:14;101288.78;;;-3.86;69.87
74794;BME280;63320;50.768;6.724;2022-12-18T08:15:39;101289.59;;;-3.87;69.94
74794;BME280;63320;50.768;6.724;2022-12-18T08:18:05;101286.66;;;-4.01;70.85
74794;BME280;63320;50.768;6.724;2022-12-18T08:20:31;101275.13;;;-3.84;70.35
74794;BME280;63320;50.768;6.724;2022-12-18T08:22:57;101274.84;;;-3.95;70.95
74794;BME280;63320;50.768;6.724;2022-12-18T08:25:22;101275.84;;;-3.89;71.58
74794;BME280;63320;50.768;6.724;2022-12-18T08:27:47;101279.47;;;-4.13;71.10
74794;BME280;63320;50.768;6.724;2022-12-18T08:30:13;101271.31;;;-3.98;71.15
74794;BME280;63320;50.768;6.724;2022-12-18T08:32:40;101259.59;;;-3.88;70.71
74794;BME280;63320;50.768;6.724;2022-12-18T08:35:06;101272.13;;;-3.68;70.12
74794;BME280;63320;50.768;6.724;2022-12-18T08:37:32;101262.59;;;-4.03;71.42
74794;BME280;63320;50.768;6.724;2022-12-18T08:39:58;101255.28;;;-3.89;71.42
74794;BME280;63320;50.768;6.724;2022-12-18T08:42:23;101261.88;;;-3.99;71.40
74794;BME280;63320;50.768;6.724;2022-12-18T08:47:16;101280.19;;;-3.87;71.83
74794;BME280;63320;50.768;6.724;2022-12-18T08:49:41;101274.09;;;-3.91;71.98
74794;BME280;63320;50.768;6.724;2022-12-18T08:52:07;101279.88;;;-3.98;72.60
74794;BME280;63320;50.768;6.724;2022-12-18T08:54:33;101263.53;;;-3.70;71.96
74794;BME280;63320;50.768;6.724;2022-12-18T08:56:59;101267.94;;;-3.66;72.38
74794;BME280;63320;50.768;6.724;2022-12-18T08:59:24;101259.63;;;-3.55;72.16
74794;BME280;63320;50.768;6.724;2022-12-18T09:01:49;101264.91;;;-3.51;71.68
74794;BME280;63320;50.768;6.724;2022-12-18T09:04:15;101264.94;;;-3.48;72.18
74794;BME280;63320;50.768;6.724;2022-12-18T09:06:40;101265.03;;;-3.45;72.07
74794;BME280;63320;50.768;6.724;2022-12-18T09:09:06;101270.16;;;-3.46;72.39
74794;BME280;63320;50.768;6.724;2022-12-18T09:11:33;101275.09;;;-3.21;70.96
74794;BME280;63320;50.768;6.724;2022-12-18T09:14:00;101283.59;;;-3.22;71.10
74794;BME280;63320;50.768;6.724;2022-12-18T09:16:26;101280.75;;;-3.32;71.51
74794;BME280;63320;50.768;6.724;2022-12-18T09:18:52;101278.25;;;-3.31;72.25
74794;BME280;63320;50.768;6.724;2022-12-18T09:21:19;101280.13;;;-3.24;71.34
74794;BME280;63320;50.768;6.724;2022-12-18T09:23:48;101262.50;;;-3.08;71.48
74794;BME280;63320;50.768;6.724;2022-12-18T09:26:14;101253.31;;;-2.97;70.61
74794;BME280;63320;50.768;6.724;2022-12-18T09:28:41;101250.03;;;-2.92;71.01
74794;BME280;63320;50.768;6.724;2022-12-18T09:31:07;101236.88;;;-3.04;71.67
74794;BME280;63320;50.768;6.724;2022-12-18T09:33:33;101234.13;;;-3.12;72.01
74794;BME280;63320;50.768;6.724;2022-12-18T09:36:01;101242.81;;;-3.06;71.73
74794;BME280;63320;50.768;6.724;2022-12-18T09:38:26;101235.47;;;-2.91;71.02
74794;BME280;63320;50.768;6.724;2022-12-18T09:40:53;101243.09;;;-2.96;71.48
74794;BME280;63320;50.768;6.724;2022-12-18T09:43:26;101250.66;;;-3.02;71.25
74794;BME280;63320;50.768;6.724;2022-12-18T09:45:58;101243.13;;;-2.94;71.45
74794;BME280;63320;50.768;6.724;2022-12-18T09:48:25;101236.63;;;-2.78;71.01
74794;BME280;63320;50.768;6.724;2022-12-18T09:50:55;101238.09;;;-2.88;71.49
74794;BME280;63320;50.768;6.724;2022-12-18T09:53:26;101216.53;;;-2.95;71.67
74794;BME280;63320;50.768;6.724;2022-12-18T09:55:52;101219.34;;;-2.82;72.33
74794;BME280;63320;50.768;6.724;2022-12-18T09:58:25;101209.16;;;-2.78;71.80
74794;BME280;63320;50.768;6.724;2022-12-18T10:00:52;101200.59;;;-2.77;71.60
74794;BME280;63320;50.768;6.724;2022-12-18T10:03:19;101211.09;;;-2.68;71.62
74794;BME280;63320;50.768;6.724;2022-12-18T10:05:52;101210.31;;;-2.65;71.44
74794;BME280;63320;50.768;6.724;2022-12-18T10:08:27;101204.53;;;-2.53;71.30
74794;BME280;63320;50.768;6.724;2022-12-18T10:10:57;101201.13;;;-2.52;71.88
74794;BME280;63320;50.768;6.724;2022-12-18T10:13:31;101198.53;;;-2.54;70.97
74794;BME280;63320;50.768;6.724;2022-12-18T10:16:12;101200.28;;;-2.51;71.18
74794;BME280;63320;50.768;6.724;2022-12-18T10:18:54;101210.00;;;-2.38;71.05
74794;BME280;63320;50.768;6.724;2022-12-18T10:21:30;101207.53;;;-2.33;71.13
74794;BME280;63320;50.768;6.724;2022-12-18T10:24:03;101203.06;;;-2.42;70.47
74794;BME280;63320;50.768;6.724;2022-12-18T10:26:34;101202.25;;;-2.40;70.50
74794;BME280;63320;50.768;6.724;2022-12-18T10:28:59;101203.22;;;-2.35;70.68
74794;BME280;63320;50.768;6.724;2022-12-18T10:31:25;101202.50;;;-2.27;70.78
74794;BME280;63320;50.768;6.724;2022-12-18T10:33:53;101198.19;;;-2.28;70.90
74794;BME280;63320;50.768;6.724;2022-12-18T10:36:18;101200.28;;;-2.11;70.57
74794;BME280;63320;50.768;6.724;2022-12-18T10:38:44;101188.16;;;-2.15;70.52
74794;BME280;63320;50.768;6.724;2022-12-18T10:41:24;101184.06;;;-2.03;70.54
74794;BME280;63320;50.768;6.724;2022-12-18T10:44:15;101185.03;;;-1.98;70.23
74794;BME280;63320;50.768;6.724;2022-12-18T10:46:41;101182.09;;;-2.17;70.76
74794;BME280;63320;50.768;6.724;2022-12-18T10:49:18;101181.09;;;-2.25;70.45
74794;BME280;63320;50.768;6.724;2022-12-18T10:51:44;101180.56;;;-2.07;70.70
74794;BME280;63320;50.768;6.724;2022-12-18T10:54:15;101172.75;;;-2.12;70.89
74794;BME280;63320;50.768;6.724;2022-12-18T10:56:41;101179.59;;;-2.12;71.01
74794;BME280;63320;50.768;6.724;2022-12-18T10:59:08;101176.91;;;-2.18;70.69
74794;BME280;63320;50.768;6.724;2022-12-18T11:01:49;101181.50;;;-2.03;70.30
74794;BME280;63320;50.768;6.724;2022-12-18T11:04:21;101174.66;;;-2.01;70.38
74794;BME280;63320;50.768;6.724;2022-12-18T11:06:58;101172.31;;;-1.88;70.31
74794;BME280;63320;50.768;6.724;2022-12-18T11:09:25;101169.72;;;-1.89;69.69
74794;BME280;63320;50.768;6.724;2022-12-18T11:11:52;101157.72;;;-1.89;69.62
74794;BME280;63320;50.768;6.724;2022-12-18T11:14:20;101160.22;;;-1.92;70.15
74794;BME280;63320;50.768;6.724;2022-12-18T11:16:47;101161.09;;;-1.91;70.25
74794;BME280;63320;50.768;6.724;2022-12-18T11:19:22;101161.84;;;-1.97;70.02
74794;BME280;63320;50.768;6.724;2022-12-18T11:21:50;101168.91;;;-1.87;69.96
74794;BME280;63320;50.768;6.724;2022-12-18T11:24:20;101159.53;;;-1.83;70.07
74794;BME280;63320;50.768;6.724;2022-12-18T11:26:46;101151.09;;;-1.73;69.77
74794;BME280;63320;50.768;6.724;2022-12-18T11:29:16;101152.66;;;-1.81;69.54
74794;BME280;63320;50.768;6.724;2022-12-18T11:31:42;101147.75;;;-1.69;69.78
74794;BME280;63320;50.768;6.724;2022-12-18T11:34:10;101151.81;;;-1.82;69.79
74794;BME280;63320;50.768;6.724;2022-12-18T11:36:40;101147.56;;;-1.79;70.06
74794;BME280;63320;50.768;6.724;2022-12-18T11:39:12;101152.81;;;-1.72;69.38
74794;BME280;63320;50.768;6.724;2022-12-18T11:41:47;101135.72;;;-1.67;69.56
74794;BME280;63320;50.768;6.724;2022-12-18T11:44:19;101134.94;;;-1.63;69.45
74794;BME280;63320;50.768;6.724;2022-12-18T11:46:51;101129.69;;;-1.70;69.77
74794;BME280;63320;50.768;6.724;2022-12-18T11:49:22;101117.66;;;-1.70;69.80
74794;BME280;63320;50.768;6.724;2022-12-18T11:51:55;101116.88;;;-1.63;69.84
74794;BME280;63320;50.768;6.724;2022-12-18T11:54:24;101109.84;;;-1.73;69.53
74794;BME280;63320;50.768;6.724;2022-12-18T11:56:53;101108.22;;;-1.68;69.78
74794;BME280;63320;50.768;6.724;2022-12-18T11:59:29;101098.59;;;-1.79;69.99
74794;BME280;63320;50.768;6.724;2022-12-18T12:02:09;101091.03;;;-1.69;69.36
74794;BME280;63320;50.768;6.724;2022-12-18T12:04:48;101097.16;;;-1.61;69.53
74794;BME280;63320;50.768;6.724;2022-12-18T12:07:31;101094.53;;;-1.62;69.43
74794;BME280;63320;50.768;6.724;2022-12-18T12:10:08;101082.44;;;-1.66;69.48
74794;BME280;63320;50.768;6.724;2022-12-18T12:12:48;101075.50;;;-1.72;69.71
74794;BME280;63320;50.768;6.724;2022-12-18T12:15:26;101086.72;;;-1.68;69.55
74794;BME280;63320;50.768;6.724;2022-12-18T12:17:57;101079.03;;;-1.65;69.65
74794;BME280;63320;50.768;6.724;2022-12-18T12:20:35;101083.53;;;-1.52;69.48
74794;BME280;63320;50.768;6.724;2022-12-18T12:23:16;101076.63;;;-1.53;69.11
74794;BME280;63320;50.768;6.724;2022-12-18T12:25:48;101081.69;;;-1.61;69.15
74794;BME280;63320;50.768;6.724;2022-12-18T12:28:28;101079.75;;;-1.75;70.04
74794;BME280;63320;50.768;6.724;2022-12-18T12:31:02;101076.63;;;-1.53;69.35
74794;BME280;63320;50.768;6.724;2022-12-18T12:33:37;101078.06;;;-1.73;69.79
74794;BME280;63320;50.768;6.724;2022-12-18T12:36:10;101075.69;;;-1.60;69.62
74794;BME280;63320;50.768;6.724;2022-12-18T12:38:44;101081.63;;;-1.65;69.28
74794;BME280;63320;50.768;6.724;2022-12-18T12:41:14;101082.72;;;-1.49;69.34
74794;BME280;63320;50.768;6.724;2022-12-18T12:43:44;101085.38;;;-1.45;69.07
74794;BME280;63320;50.768;6.724;2022-12-18T12:46:13;101073.03;;;-1.64;69.21
74794;BME280;63320;50.768;6.724;2022-12-18T12:48:43;101078.41;;;-1.50;69.03
74794;BME280;63320;50.768;6.724;2022-12-18T12:51:15;101073.97;;;-1.61;69.27
74794;BME280;63320;50.768;6.724;2022-12-18T12:53:42;101070.69;;;-1.49;68.70
74794;BME280;63320;50.768;6.724;2022-12-18T12:56:11;101086.25;;;-1.41;69.08
74794;BME280;63320;50.768;6.724;2022-12-18T12:58:41;101084.38;;;-1.51;69.19
74794;BME280;63320;50.768;6.724;2022-12-18T13:01:16;101074.13;;;-1.48;68.72